createdAt,value
2022-10-13T00:04:58.773Z,49.18
2022-10-13T00:10:04.248Z,49.28
2022-10-13T00:15:10.619Z,49.38
2022-10-13T00:20:14.256Z,49.92
2022-10-13T00:25:17.964Z,50.56
2022-10-13T00:30:24.717Z,50.42
2022-10-13T00:35:28.133Z,50.06
2022-10-13T00:40:31.560Z,50.04
2022-10-13T00:45:36.529Z,49.78
2022-10-13T00:50:42.478Z,50.23
2022-10-13T00:55:47.416Z,49.96
2022-10-13T01:00:53.414Z,50.18
2022-10-13T01:06:14.256Z,50.35
2022-10-13T01:11:26.458Z,50.06
2022-10-13T01:16:35.851Z,50.10
2022-10-13T01:21:44.398Z,50.06
2022-10-13T01:27:14.770Z,49.87
2022-10-13T01:32:25.125Z,50.15
2022-10-13T01:37:30.575Z,50.08
2022-10-13T01:42:37.367Z,50.43
2022-10-13T01:47:44.506Z,50.02
2022-10-13T01:52:48.228Z,50.44
2022-10-13T01:57:51.603Z,50.30
2022-10-13T02:03:05.791Z,49.95
2022-10-13T02:08:13.774Z,50.25
2022-10-13T02:13:18.888Z,50.42
2022-10-13T02:18:27.356Z,50.47
2022-10-13T02:23:31.114Z,50.71
2022-10-13T02:28:34.576Z,50.82
2022-10-13T02:33:39.412Z,50.71
2022-10-13T02:38:42.854Z,50.80
2022-10-13T02:43:47.449Z,50.77
2022-10-13T02:48:52.233Z,50.92
2022-10-13T02:53:55.718Z,50.32
2022-10-13T02:58:59.155Z,50.09
2022-10-13T03:04:03.968Z,50.07
2022-10-13T03:09:07.429Z,49.93
2022-10-13T03:14:12.188Z,49.95
2022-10-13T03:19:17.064Z,50.54
2022-10-13T03:24:20.531Z,49.85
2022-10-13T03:29:24.143Z,49.81
2022-10-13T03:34:28.985Z,49.91
2022-10-13T03:39:32.873Z,49.95
2022-10-13T03:44:36.326Z,49.75
2022-10-13T03:49:41.230Z,49.92
2022-10-13T03:54:44.650Z,49.99
2022-10-13T03:59:48.089Z,49.98
2022-10-13T04:04:52.958Z,50.73
2022-10-13T04:09:56.374Z,50.48
2022-10-13T04:14:59.769Z,50.59
2022-10-13T04:20:05.793Z,50.80
2022-10-13T04:25:10.143Z,50.68
2022-10-13T04:30:13.810Z,50.92
2022-10-13T04:35:18.584Z,50.27
2022-10-13T04:40:21.994Z,50.33
2022-10-13T04:45:25.399Z,50.56
2022-10-13T04:50:30.267Z,50.62
2022-10-13T04:55:37.999Z,50.43
2022-10-13T05:00:42.356Z,50.61
2022-10-13T05:05:47.263Z,50.39
2022-10-13T05:10:57.245Z,50.72
2022-10-13T05:16:00.649Z,50.77
2022-10-13T05:21:09.961Z,50.83
2022-10-13T05:26:16.281Z,51.12
2022-10-13T05:31:21.486Z,50.69
2022-10-13T05:36:27.720Z,50.35
2022-10-13T05:41:31.816Z,50.64
2022-10-13T05:46:35.455Z,50.30
2022-10-13T05:51:41.803Z,50.37
2022-10-13T05:56:48.731Z,50.41
2022-10-13T06:01:52.604Z,50.28
2022-10-13T06:06:57.434Z,50.48
2022-10-13T06:12:00.811Z,51.28
2022-10-13T06:17:04.453Z,50.47
2022-10-13T06:22:09.583Z,50.12
2022-10-13T06:27:13.336Z,50.38
2022-10-13T06:32:16.773Z,50.26
2022-10-13T06:37:26.311Z,50.49
2022-10-13T06:42:31.744Z,50.75
2022-10-13T06:47:45.226Z,50.43
2022-10-13T06:52:50.072Z,50.16
2022-10-13T06:57:53.499Z,49.89
2022-10-13T07:02:57.086Z,49.75
2022-10-13T07:08:02.377Z,49.97
2022-10-13T07:13:06.124Z,49.98
2022-10-13T07:18:10.900Z,50.40
2022-10-13T07:23:15.682Z,50.25
2022-10-13T07:28:19.459Z,49.72
2022-10-13T07:33:24.022Z,49.13
2022-10-13T07:38:28.950Z,48.91
2022-10-13T07:43:32.622Z,48.80
2022-10-13T07:48:38.176Z,48.42
2022-10-13T07:53:43.695Z,48.32
2022-10-13T07:58:48.287Z,47.81
2022-10-13T08:03:51.832Z,46.97
2022-10-13T08:08:57.647Z,47.75
2022-10-13T08:14:01.966Z,47.33
2022-10-13T08:19:05.402Z,47.39
2022-10-13T08:24:12.509Z,47.14
2022-10-13T08:29:21.884Z,46.88
2022-10-13T08:34:26.986Z,46.76
2022-10-13T08:39:32.067Z,45.80
2022-10-13T08:50:05.825Z,45.06
2022-10-13T08:55:21.402Z,45.65
2022-10-13T09:00:24.778Z,44.75
2022-10-13T09:05:37.572Z,44.17
2022-10-13T09:10:51.638Z,44.69
2022-10-13T09:15:56.378Z,44.04
2022-10-13T09:21:21.537Z,43.05
2022-10-13T09:26:26.469Z,42.69
2022-10-13T09:31:30.491Z,42.91
2022-10-13T09:36:34.290Z,42.49
2022-10-13T09:41:40.433Z,42.64
2022-10-13T09:46:49.931Z,42.49
2022-10-13T09:52:00.539Z,42.56
2022-10-13T09:57:08.028Z,42.81
2022-10-13T10:02:22.512Z,42.71
2022-10-13T10:07:31.838Z,42.41
2022-10-13T10:12:39.060Z,41.58
2022-10-13T10:17:47.610Z,40.48
2022-10-13T10:22:55.728Z,40.53
2022-10-13T10:28:18.124Z,40.30
2022-10-13T10:33:23.380Z,40.35
2022-10-13T10:38:34.395Z,39.33
2022-10-13T10:43:48.884Z,38.56
2022-10-13T10:48:58.086Z,38.16
2022-10-13T10:54:14.951Z,37.81
2022-10-13T10:59:27.823Z,36.84
2022-10-13T11:04:41.543Z,36.34
2022-10-13T11:10:05.166Z,36.49
2022-10-13T11:15:11.936Z,37.32
2022-10-13T11:20:50.053Z,37.07
2022-10-13T11:26:31.116Z,36.20
2022-10-13T11:31:52.991Z,35.34
2022-10-13T11:36:58.367Z,35.96
2022-10-13T11:42:09.164Z,34.80
2022-10-13T11:47:20.952Z,35.11
2022-10-13T11:52:37.538Z,34.19
2022-10-13T11:57:40.974Z,33.94
2022-10-13T12:02:54.179Z,34.72
2022-10-13T12:08:00.234Z,34.66
2022-10-13T12:13:04.709Z,34.38
2022-10-13T12:18:23.760Z,35.28
2022-10-13T12:23:28.004Z,35.09
2022-10-13T12:28:44.188Z,35.00
2022-10-13T12:33:54.993Z,34.72
2022-10-13T12:39:01.295Z,34.46
2022-10-13T12:44:06.774Z,34.68
2022-10-13T12:49:16.763Z,33.97
2022-10-13T12:54:23.866Z,34.37
2022-10-13T12:59:29.211Z,35.79
2022-10-13T13:04:44.657Z,34.94
2022-10-13T13:10:00.773Z,35.00
2022-10-13T13:15:29.231Z,35.11
2022-10-13T13:20:37.769Z,35.44
2022-10-13T13:25:41.159Z,35.49
2022-10-13T13:30:45.182Z,35.39
2022-10-13T13:35:50.004Z,35.11
2022-10-13T13:40:53.453Z,35.42
2022-10-13T13:45:56.989Z,36.19
2022-10-13T13:51:01.971Z,36.30
2022-10-13T13:56:06.153Z,36.40
2022-10-13T14:01:09.747Z,36.59
2022-10-13T14:06:19.759Z,37.18
2022-10-13T14:11:23.120Z,36.80
2022-10-13T14:16:26.561Z,37.16
2022-10-13T14:21:31.903Z,37.66
2022-10-13T14:26:35.407Z,37.13
2022-10-13T14:31:38.820Z,37.23
2022-10-13T14:36:43.663Z,37.24
2022-10-13T14:41:47.252Z,36.80
2022-10-13T14:46:50.644Z,36.92
2022-10-13T14:51:55.451Z,37.32
2022-10-13T14:57:00.722Z,37.07
2022-10-13T15:02:04.089Z,37.12
2022-10-13T15:07:08.919Z,37.34
2022-10-13T15:12:12.542Z,37.03
2022-10-13T15:17:15.909Z,37.29
2022-10-13T15:22:21.207Z,37.07
2022-10-13T15:27:24.974Z,37.43
2022-10-13T15:32:28.383Z,37.52
2022-10-13T15:37:36.116Z,37.72
2022-10-13T15:42:39.670Z,38.40
2022-10-13T15:47:43.134Z,38.54
2022-10-13T15:52:48.086Z,38.29
2022-10-13T15:57:51.601Z,38.68
2022-10-13T16:02:55.012Z,38.69
2022-10-13T16:07:59.842Z,39.20
2022-10-13T16:13:03.234Z,39.56
2022-10-13T16:18:06.841Z,39.43
2022-10-13T16:23:11.674Z,40.03
2022-10-13T16:28:15.663Z,39.99
2022-10-13T16:33:19.185Z,40.01
2022-10-13T16:38:24.082Z,40.42
2022-10-13T16:43:27.525Z,40.66
2022-10-13T16:48:31.444Z,40.65
2022-10-13T16:53:36.761Z,40.72
2022-10-13T16:58:45.097Z,41.01
2022-10-13T17:03:50.060Z,41.26
2022-10-13T17:08:54.918Z,41.65
2022-10-13T17:13:59.136Z,42.07
2022-10-13T17:19:07.717Z,41.88
2022-10-13T17:24:14.051Z,42.20
2022-10-13T17:29:17.791Z,43.04
2022-10-13T17:34:22.042Z,43.19
2022-10-13T17:39:29.443Z,43.21
2022-10-13T17:44:33.349Z,44.20
2022-10-13T17:49:38.055Z,44.59
2022-10-13T17:54:43.229Z,44.80
2022-10-13T17:59:47.140Z,44.87
2022-10-13T18:04:50.617Z,44.56
2022-10-13T18:09:55.382Z,44.89
2022-10-13T18:14:58.848Z,45.22
2022-10-13T18:20:02.311Z,45.40
2022-10-13T18:25:08.527Z,45.67
2022-10-13T18:30:13.292Z,45.20
2022-10-13T18:35:16.959Z,45.59
2022-10-13T18:40:22.236Z,45.61
2022-10-13T18:45:25.632Z,45.44
2022-10-13T18:50:29.024Z,45.90
2022-10-13T18:55:34.641Z,46.06
2022-10-13T19:00:38.256Z,45.71
2022-10-13T19:05:41.643Z,45.57
2022-10-13T19:10:46.419Z,45.29
2022-10-13T19:15:49.882Z,45.77
2022-10-13T19:20:53.366Z,46.22
2022-10-13T19:25:58.482Z,46.09
2022-10-13T19:31:09.329Z,46.51
2022-10-13T19:36:21.733Z,46.24
2022-10-13T19:41:28.440Z,47.35
2022-10-13T19:46:31.893Z,46.39
2022-10-13T19:51:35.385Z,47.09
2022-10-13T19:56:40.289Z,46.92
2022-10-13T20:01:45.249Z,46.81
2022-10-13T20:06:51.901Z,47.70
2022-10-13T20:11:56.867Z,48.31
2022-10-13T20:17:00.290Z,48.28
2022-10-13T20:22:03.698Z,47.96
2022-10-13T20:27:08.462Z,48.11
2022-10-13T20:32:11.830Z,48.61
2022-10-13T20:37:15.369Z,48.52
2022-10-13T20:42:20.097Z,49.34
2022-10-13T20:47:23.623Z,49.46
2022-10-13T20:52:27.284Z,49.33
2022-10-13T20:57:31.995Z,48.71
2022-10-13T21:02:35.424Z,49.00
2022-10-13T21:07:39.078Z,49.12
2022-10-13T21:12:43.803Z,49.27
2022-10-13T21:17:47.676Z,49.08
2022-10-13T21:22:51.086Z,49.03
2022-10-13T21:27:56.639Z,49.71
2022-10-13T21:33:00.073Z,49.07
2022-10-13T21:38:03.511Z,49.46
2022-10-13T21:43:08.850Z,48.96
2022-10-13T21:48:12.549Z,48.92
2022-10-13T21:53:16.419Z,49.14
2022-10-13T21:58:21.147Z,49.22
2022-10-13T22:03:24.535Z,48.98
2022-10-13T22:08:37.942Z,49.96
2022-10-13T22:13:52.700Z,49.41
2022-10-13T22:18:57.922Z,49.74
2022-10-13T22:24:03.873Z,49.23
2022-10-13T22:29:09.735Z,49.49
2022-10-13T22:34:15.459Z,49.57
2022-10-13T22:39:18.991Z,50.00
2022-10-13T22:44:23.704Z,49.83
2022-10-13T22:49:27.306Z,50.57
2022-10-13T22:54:30.706Z,51.69
2022-10-13T22:59:35.615Z,51.28
2022-10-13T23:04:39.071Z,50.89
2022-10-13T23:09:42.590Z,50.99
2022-10-13T23:14:47.377Z,51.38
2022-10-13T23:19:50.840Z,51.60
2022-10-13T23:24:54.245Z,51.05
2022-10-13T23:29:59.190Z,51.06
2022-10-13T23:35:02.773Z,51.23
2022-10-13T23:40:10.036Z,51.50
2022-10-13T23:45:14.903Z,50.75
2022-10-13T23:50:18.445Z,50.84
2022-10-13T23:55:21.822Z,51.15
